News   Forum   Calendar   Photos   Historical   Metars   Tracking   About Us   
JOHN WAYNE  KSNA 230353Z 19005KT 6SM BR OVC012 17/09 A2993 RMK AO2 SLP134 T01670094 $
FULLERTON   KFUL 230353Z 19004KT 9SM OVC018 16/14 A2992 RMK AO2 SLP131 T01560144